sensor_id;sensor_type;location;lat;lon;timestamp;P1;durP1;ratioP1;P2;durP2;ratioP2
48516;SDS011;34310;51.904;4.256;2022-12-08T00:01:22;2.17;;;1.15;;
48516;SDS011;34310;51.904;4.256;2022-12-08T00:03:52;1.10;;;1.00;;
48516;SDS011;34310;51.904;4.256;2022-12-08T00:09:31;1.90;;;1.20;;
48516;SDS011;34310;51.904;4.256;2022-12-08T00:14:36;1.08;;;0.98;;
48516;SDS011;34310;51.904;4.256;2022-12-08T00:17:12;1.70;;;1.27;;
48516;SDS011;34310;51.904;4.256;2022-12-08T00:19:41;1.25;;;0.90;;
48516;SDS011;34310;51.904;4.256;2022-12-08T00:22:09;1.85;;;1.00;;
48516;SDS011;34310;51.904;4.256;2022-12-08T00:24:38;1.73;;;1.27;;
48516;SDS011;34310;51.904;4.256;2022-12-08T00:27:07;1.77;;;1.13;;
48516;SDS011;34310;51.904;4.256;2022-12-08T00:29:35;1.48;;;0.90;;
48516;SDS011;34310;51.904;4.256;2022-12-08T00:32:03;1.75;;;1.10;;
48516;SDS011;34310;51.904;4.256;2022-12-08T00:34:31;1.75;;;0.95;;
48516;SDS011;34310;51.904;4.256;2022-12-08T00:36:58;1.17;;;0.90;;
48516;SDS011;34310;51.904;4.256;2022-12-08T00:39:26;1.27;;;0.90;;
48516;SDS011;34310;51.904;4.256;2022-12-08T00:41:53;1.48;;;1.15;;
48516;SDS011;34310;51.904;4.256;2022-12-08T00:44:40;0.98;;;0.80;;
48516;SDS011;34310;51.904;4.256;2022-12-08T00:47:10;1.75;;;1.02;;
48516;SDS011;34310;51.904;4.256;2022-12-08T00:49:38;2.10;;;1.33;;
48516;SDS011;34310;51.904;4.256;2022-12-08T00:52:05;1.17;;;0.90;;
48516;SDS011;34310;51.904;4.256;2022-12-08T00:54:33;1.27;;;0.80;;
48516;SDS011;34310;51.904;4.256;2022-12-08T00:57:01;1.33;;;1.05;;
48516;SDS011;34310;51.904;4.256;2022-12-08T00:59:28;2.13;;;1.05;;
48516;SDS011;34310;51.904;4.256;2022-12-08T01:01:55;1.30;;;0.95;;
48516;SDS011;34310;51.904;4.256;2022-12-08T01:04:22;1.42;;;0.90;;
48516;SDS011;34310;51.904;4.256;2022-12-08T01:06:50;1.30;;;0.80;;
48516;SDS011;34310;51.904;4.256;2022-12-08T01:09:17;0.93;;;0.77;;
48516;SDS011;34310;51.904;4.256;2022-12-08T01:11:44;1.42;;;0.85;;
48516;SDS011;34310;51.904;4.256;2022-12-08T01:14:12;1.45;;;0.80;;
48516;SDS011;34310;51.904;4.256;2022-12-08T01:16:40;1.25;;;0.70;;
48516;SDS011;34310;51.904;4.256;2022-12-08T01:19:11;1.73;;;0.80;;
48516;SDS011;34310;51.904;4.256;2022-12-08T01:21:40;1.15;;;0.70;;
48516;SDS011;34310;51.904;4.256;2022-12-08T01:24:13;1.25;;;0.80;;
48516;SDS011;34310;51.904;4.256;2022-12-08T01:26:45;1.63;;;0.80;;
48516;SDS011;34310;51.904;4.256;2022-12-08T01:29:13;2.75;;;0.70;;
48516;SDS011;34310;51.904;4.256;2022-12-08T01:31:41;1.38;;;0.70;;
48516;SDS011;34310;51.904;4.256;2022-12-08T01:34:09;0.70;;;0.60;;
48516;SDS011;34310;51.904;4.256;2022-12-08T01:36:37;2.67;;;0.80;;
48516;SDS011;34310;51.904;4.256;2022-12-08T01:39:07;1.38;;;0.70;;
48516;SDS011;34310;51.904;4.256;2022-12-08T01:41:38;1.10;;;0.68;;
48516;SDS011;34310;51.904;4.256;2022-12-08T01:46:35;0.60;;;0.60;;
48516;SDS011;34310;51.904;4.256;2022-12-08T01:49:37;0.60;;;0.60;;
48516;SDS011;34310;51.904;4.256;2022-12-08T01:54:55;0.82;;;0.70;;
48516;SDS011;34310;51.904;4.256;2022-12-08T01:57:28;0.90;;;0.60;;
48516;SDS011;34310;51.904;4.256;2022-12-08T02:00:04;0.70;;;0.60;;
48516;SDS011;34310;51.904;4.256;2022-12-08T02:02:56;0.73;;;0.50;;
48516;SDS011;34310;51.904;4.256;2022-12-08T02:05:29;1.30;;;0.80;;
48516;SDS011;34310;51.904;4.256;2022-12-08T02:07:59;0.80;;;0.55;;
48516;SDS011;34310;51.904;4.256;2022-12-08T02:10:31;1.40;;;0.60;;
48516;SDS011;34310;51.904;4.256;2022-12-08T02:13:00;0.88;;;0.65;;
48516;SDS011;34310;51.904;4.256;2022-12-08T02:21:53;0.50;;;0.50;;
48516;SDS011;34310;51.904;4.256;2022-12-08T02:24:38;2.58;;;0.60;;
48516;SDS011;34310;51.904;4.256;2022-12-08T02:27:16;0.68;;;0.45;;
48516;SDS011;34310;51.904;4.256;2022-12-08T02:30:32;0.82;;;0.50;;
48516;SDS011;34310;51.904;4.256;2022-12-08T02:34:08;0.70;;;0.47;;
48516;SDS011;34310;51.904;4.256;2022-12-08T02:36:09;0.65;;;0.50;;
48516;SDS011;34310;51.904;4.256;2022-12-08T02:38:59;1.67;;;0.85;;
48516;SDS011;34310;51.904;4.256;2022-12-08T02:41:41;0.82;;;0.50;;
48516;SDS011;34310;51.904;4.256;2022-12-08T02:47:07;0.47;;;0.38;;
48516;SDS011;34310;51.904;4.256;2022-12-08T02:49:35;0.75;;;0.40;;
48516;SDS011;34310;51.904;4.256;2022-12-08T02:55:00;0.98;;;0.50;;
48516;SDS011;34310;51.904;4.256;2022-12-08T03:00:08;0.60;;;0.50;;
48516;SDS011;34310;51.904;4.256;2022-12-08T03:05:20;0.85;;;0.57;;
48516;SDS011;34310;51.904;4.256;2022-12-08T03:10:55;0.57;;;0.45;;
48516;SDS011;34310;51.904;4.256;2022-12-08T03:13:27;1.08;;;0.50;;
48516;SDS011;34310;51.904;4.256;2022-12-08T03:16:11;1.92;;;0.75;;
48516;SDS011;34310;51.904;4.256;2022-12-08T03:18:44;0.45;;;0.40;;
48516;SDS011;34310;51.904;4.256;2022-12-08T03:21:16;1.23;;;0.50;;
48516;SDS011;34310;51.904;4.256;2022-12-08T03:23:46;1.05;;;0.65;;
48516;SDS011;34310;51.904;4.256;2022-12-08T03:26:18;2.78;;;0.70;;
48516;SDS011;34310;51.904;4.256;2022-12-08T03:28:55;0.57;;;0.40;;
48516;SDS011;34310;51.904;4.256;2022-12-08T03:31:24;0.65;;;0.60;;
48516;SDS011;34310;51.904;4.256;2022-12-08T03:33:57;0.82;;;0.40;;
48516;SDS011;34310;51.904;4.256;2022-12-08T03:36:26;3.88;;;0.65;;
48516;SDS011;34310;51.904;4.256;2022-12-08T03:38:53;0.65;;;0.60;;
48516;SDS011;34310;51.904;4.256;2022-12-08T03:41:21;1.48;;;0.60;;
48516;SDS011;34310;51.904;4.256;2022-12-08T03:43:49;0.63;;;0.50;;
48516;SDS011;34310;51.904;4.256;2022-12-08T03:46:19;0.95;;;0.60;;
48516;SDS011;34310;51.904;4.256;2022-12-08T03:48:46;0.93;;;0.50;;
48516;SDS011;34310;51.904;4.256;2022-12-08T03:51:14;0.90;;;0.50;;
48516;SDS011;34310;51.904;4.256;2022-12-08T03:53:42;1.25;;;0.47;;
48516;SDS011;34310;51.904;4.256;2022-12-08T03:56:24;0.73;;;0.52;;
48516;SDS011;34310;51.904;4.256;2022-12-08T03:58:57;0.93;;;0.60;;
48516;SDS011;34310;51.904;4.256;2022-12-08T04:01:25;2.95;;;0.60;;
48516;SDS011;34310;51.904;4.256;2022-12-08T04:03:53;1.15;;;0.40;;
48516;SDS011;34310;51.904;4.256;2022-12-08T04:06:20;1.30;;;0.50;;
48516;SDS011;34310;51.904;4.256;2022-12-08T04:08:48;2.13;;;0.50;;
48516;SDS011;34310;51.904;4.256;2022-12-08T04:11:16;1.30;;;0.77;;
48516;SDS011;34310;51.904;4.256;2022-12-08T04:13:44;0.98;;;0.47;;
48516;SDS011;34310;51.904;4.256;2022-12-08T04:16:16;0.95;;;0.50;;
48516;SDS011;34310;51.904;4.256;2022-12-08T04:18:46;0.88;;;0.50;;
48516;SDS011;34310;51.904;4.256;2022-12-08T04:21:14;0.65;;;0.50;;
48516;SDS011;34310;51.904;4.256;2022-12-08T04:23:42;0.90;;;0.50;;
48516;SDS011;34310;51.904;4.256;2022-12-08T04:26:09;0.65;;;0.40;;
48516;SDS011;34310;51.904;4.256;2022-12-08T04:28:37;0.55;;;0.40;;
48516;SDS011;34310;51.904;4.256;2022-12-08T04:31:05;1.05;;;0.50;;
48516;SDS011;34310;51.904;4.256;2022-12-08T04:33:32;1.48;;;0.45;;
48516;SDS011;34310;51.904;4.256;2022-12-08T04:36:00;0.57;;;0.30;;
48516;SDS011;34310;51.904;4.256;2022-12-08T04:38:29;0.95;;;0.55;;
48516;SDS011;34310;51.904;4.256;2022-12-08T04:40:57;0.68;;;0.40;;
48516;SDS011;34310;51.904;4.256;2022-12-08T04:43:24;1.23;;;0.63;;
48516;SDS011;34310;51.904;4.256;2022-12-08T04:45:51;0.75;;;0.50;;
48516;SDS011;34310;51.904;4.256;2022-12-08T04:48:19;0.40;;;0.38;;
48516;SDS011;34310;51.904;4.256;2022-12-08T04:50:46;0.60;;;0.50;;
48516;SDS011;34310;51.904;4.256;2022-12-08T04:53:13;0.68;;;0.40;;
48516;SDS011;34310;51.904;4.256;2022-12-08T04:55:41;0.80;;;0.40;;
48516;SDS011;34310;51.904;4.256;2022-12-08T04:58:11;0.60;;;0.32;;
48516;SDS011;34310;51.904;4.256;2022-12-08T05:00:39;0.73;;;0.47;;
48516;SDS011;34310;51.904;4.256;2022-12-08T05:03:07;0.73;;;0.35;;
48516;SDS011;34310;51.904;4.256;2022-12-08T05:05:34;1.23;;;0.50;;
48516;SDS011;34310;51.904;4.256;2022-12-08T05:08:02;1.10;;;0.40;;
48516;SDS011;34310;51.904;4.256;2022-12-08T05:10:30;0.80;;;0.40;;
48516;SDS011;34310;51.904;4.256;2022-12-08T05:12:58;0.98;;;0.60;;
48516;SDS011;34310;51.904;4.256;2022-12-08T05:15:25;0.75;;;0.50;;
48516;SDS011;34310;51.904;4.256;2022-12-08T05:17:53;0.52;;;0.30;;
48516;SDS011;34310;51.904;4.256;2022-12-08T05:20:20;1.00;;;0.40;;
48516;SDS011;34310;51.904;4.256;2022-12-08T05:22:48;0.90;;;0.40;;
48516;SDS011;34310;51.904;4.256;2022-12-08T05:25:15;1.17;;;0.40;;
48516;SDS011;34310;51.904;4.256;2022-12-08T05:27:42;0.60;;;0.50;;
48516;SDS011;34310;51.904;4.256;2022-12-08T05:30:10;0.90;;;0.50;;
48516;SDS011;34310;51.904;4.256;2022-12-08T05:32:37;0.52;;;0.40;;
48516;SDS011;34310;51.904;4.256;2022-12-08T05:35:04;0.52;;;0.52;;
48516;SDS011;34310;51.904;4.256;2022-12-08T05:37:32;1.50;;;0.40;;
48516;SDS011;34310;51.904;4.256;2022-12-08T05:39:59;0.95;;;0.50;;
48516;SDS011;34310;51.904;4.256;2022-12-08T05:42:27;1.50;;;0.60;;
48516;SDS011;34310;51.904;4.256;2022-12-08T05:44:55;0.98;;;0.50;;
48516;SDS011;34310;51.904;4.256;2022-12-08T05:47:22;1.15;;;0.52;;
48516;SDS011;34310;51.904;4.256;2022-12-08T05:49:49;1.25;;;0.60;;
48516;SDS011;34310;51.904;4.256;2022-12-08T05:52:16;0.77;;;0.50;;
48516;SDS011;34310;51.904;4.256;2022-12-08T05:54:44;0.63;;;0.50;;
48516;SDS011;34310;51.904;4.256;2022-12-08T05:57:11;0.95;;;0.90;;
48516;SDS011;34310;51.904;4.256;2022-12-08T05:59:38;1.20;;;1.10;;
48516;SDS011;34310;51.904;4.256;2022-12-08T06:02:06;1.17;;;1.00;;
48516;SDS011;34310;51.904;4.256;2022-12-08T06:04:34;1.20;;;1.10;;
48516;SDS011;34310;51.904;4.256;2022-12-08T06:07:01;1.02;;;1.00;;
48516;SDS011;34310;51.904;4.256;2022-12-08T06:09:29;1.27;;;0.93;;
48516;SDS011;34310;51.904;4.256;2022-12-08T06:11:56;1.63;;;1.00;;
48516;SDS011;34310;51.904;4.256;2022-12-08T06:14:23;1.83;;;1.23;;
48516;SDS011;34310;51.904;4.256;2022-12-08T06:16:50;1.48;;;1.00;;
48516;SDS011;34310;51.904;4.256;2022-12-08T06:19:18;1.42;;;1.13;;
48516;SDS011;34310;51.904;4.256;2022-12-08T06:21:46;2.25;;;1.10;;
48516;SDS011;34310;51.904;4.256;2022-12-08T06:24:13;2.78;;;1.05;;
48516;SDS011;34310;51.904;4.256;2022-12-08T06:26:40;1.50;;;0.93;;
48516;SDS011;34310;51.904;4.256;2022-12-08T06:29:08;1.27;;;1.13;;
48516;SDS011;34310;51.904;4.256;2022-12-08T06:31:35;1.10;;;1.00;;
48516;SDS011;34310;51.904;4.256;2022-12-08T06:34:03;0.93;;;0.88;;
48516;SDS011;34310;51.904;4.256;2022-12-08T06:36:31;1.50;;;1.00;;
48516;SDS011;34310;51.904;4.256;2022-12-08T06:38:59;1.73;;;1.13;;
48516;SDS011;34310;51.904;4.256;2022-12-08T06:41:27;0.88;;;0.80;;
48516;SDS011;34310;51.904;4.256;2022-12-08T06:43:55;0.80;;;0.80;;
48516;SDS011;34310;51.904;4.256;2022-12-08T06:46:22;1.55;;;1.05;;
48516;SDS011;34310;51.904;4.256;2022-12-08T06:48:50;1.27;;;0.88;;
48516;SDS011;34310;51.904;4.256;2022-12-08T06:51:18;1.17;;;1.08;;
48516;SDS011;34310;51.904;4.256;2022-12-08T06:53:47;1.13;;;0.88;;
48516;SDS011;34310;51.904;4.256;2022-12-08T06:56:15;0.88;;;0.82;;
48516;SDS011;34310;51.904;4.256;2022-12-08T06:58:45;1.05;;;0.93;;
48516;SDS011;34310;51.904;4.256;2022-12-08T07:01:18;2.08;;;1.08;;
48516;SDS011;34310;51.904;4.256;2022-12-08T07:03:45;4.05;;;1.00;;
48516;SDS011;34310;51.904;4.256;2022-12-08T07:06:22;5.07;;;1.33;;
48516;SDS011;34310;51.904;4.256;2022-12-08T07:08:50;4.38;;;1.40;;
48516;SDS011;34310;51.904;4.256;2022-12-08T07:11:18;7.35;;;1.90;;
48516;SDS011;34310;51.904;4.256;2022-12-08T07:13:47;2.13;;;0.70;;
48516;SDS011;34310;51.904;4.256;2022-12-08T07:16:15;3.40;;;1.10;;
48516;SDS011;34310;51.904;4.256;2022-12-08T07:18:42;2.78;;;1.00;;
48516;SDS011;34310;51.904;4.256;2022-12-08T07:21:10;3.75;;;1.10;;
48516;SDS011;34310;51.904;4.256;2022-12-08T07:23:40;8.20;;;1.10;;
48516;SDS011;34310;51.904;4.256;2022-12-08T07:26:09;5.68;;;1.45;;
48516;SDS011;34310;51.904;4.256;2022-12-08T07:28:38;5.82;;;1.27;;
48516;SDS011;34310;51.904;4.256;2022-12-08T07:31:06;4.88;;;1.30;;
48516;SDS011;34310;51.904;4.256;2022-12-08T07:33:41;4.40;;;1.30;;
48516;SDS011;34310;51.904;4.256;2022-12-08T07:36:09;1.92;;;1.13;;
48516;SDS011;34310;51.904;4.256;2022-12-08T07:38:36;3.83;;;1.38;;
48516;SDS011;34310;51.904;4.256;2022-12-08T07:41:04;3.10;;;1.02;;
48516;SDS011;34310;51.904;4.256;2022-12-08T07:43:31;3.90;;;1.13;;
48516;SDS011;34310;51.904;4.256;2022-12-08T07:45:58;3.55;;;1.02;;
48516;SDS011;34310;51.904;4.256;2022-12-08T07:48:25;2.75;;;1.20;;
48516;SDS011;34310;51.904;4.256;2022-12-08T07:50:58;4.70;;;1.15;;
48516;SDS011;34310;51.904;4.256;2022-12-08T07:53:26;2.17;;;1.00;;
48516;SDS011;34310;51.904;4.256;2022-12-08T07:55:54;3.13;;;1.17;;
48516;SDS011;34310;51.904;4.256;2022-12-08T07:58:22;2.28;;;1.10;;
48516;SDS011;34310;51.904;4.256;2022-12-08T08:00:51;4.15;;;1.02;;
48516;SDS011;34310;51.904;4.256;2022-12-08T08:03:18;1.63;;;0.88;;
48516;SDS011;34310;51.904;4.256;2022-12-08T08:05:47;1.27;;;0.95;;
48516;SDS011;34310;51.904;4.256;2022-12-08T08:08:15;1.50;;;0.90;;
48516;SDS011;34310;51.904;4.256;2022-12-08T08:10:43;2.65;;;1.23;;
48516;SDS011;34310;51.904;4.256;2022-12-08T08:13:12;1.10;;;0.80;;
48516;SDS011;34310;51.904;4.256;2022-12-08T08:15:39;2.08;;;0.70;;
48516;SDS011;34310;51.904;4.256;2022-12-08T08:18:07;1.02;;;0.60;;
48516;SDS011;34310;51.904;4.256;2022-12-08T08:20:34;1.67;;;0.80;;
48516;SDS011;34310;51.904;4.256;2022-12-08T08:23:01;1.00;;;0.80;;
48516;SDS011;34310;51.904;4.256;2022-12-08T08:25:29;1.35;;;0.65;;
48516;SDS011;34310;51.904;4.256;2022-12-08T08:27:56;1.95;;;0.70;;
48516;SDS011;34310;51.904;4.256;2022-12-08T08:30:24;1.83;;;0.80;;
48516;SDS011;34310;51.904;4.256;2022-12-08T08:32:51;1.55;;;0.80;;
48516;SDS011;34310;51.904;4.256;2022-12-08T08:35:18;2.10;;;0.88;;
48516;SDS011;34310;51.904;4.256;2022-12-08T08:37:46;1.10;;;0.77;;
48516;SDS011;34310;51.904;4.256;2022-12-08T08:40:15;0.75;;;0.63;;
48516;SDS011;34310;51.904;4.256;2022-12-08T08:42:43;1.13;;;0.75;;
48516;SDS011;34310;51.904;4.256;2022-12-08T08:45:10;1.98;;;0.80;;
48516;SDS011;34310;51.904;4.256;2022-12-08T08:47:37;1.17;;;0.77;;
48516;SDS011;34310;51.904;4.256;2022-12-08T08:50:05;1.23;;;0.80;;
48516;SDS011;34310;51.904;4.256;2022-12-08T08:52:33;1.35;;;0.63;;
48516;SDS011;34310;51.904;4.256;2022-12-08T08:55:00;1.25;;;0.70;;
48516;SDS011;34310;51.904;4.256;2022-12-08T08:57:28;0.82;;;0.60;;
48516;SDS011;34310;51.904;4.256;2022-12-08T08:59:55;1.13;;;0.80;;
48516;SDS011;34310;51.904;4.256;2022-12-08T09:02:22;1.10;;;0.77;;
48516;SDS011;34310;51.904;4.256;2022-12-08T09:04:50;2.42;;;0.82;;
48516;SDS011;34310;51.904;4.256;2022-12-08T09:07:18;0.88;;;0.57;;
48516;SDS011;34310;51.904;4.256;2022-12-08T09:09:45;2.00;;;0.80;;
48516;SDS011;34310;51.904;4.256;2022-12-08T09:12:12;1.25;;;0.80;;
48516;SDS011;34310;51.904;4.256;2022-12-08T09:14:39;1.05;;;0.80;;
48516;SDS011;34310;51.904;4.256;2022-12-08T09:17:07;1.10;;;0.80;;
48516;SDS011;34310;51.904;4.256;2022-12-08T09:19:34;2.45;;;1.00;;
48516;SDS011;34310;51.904;4.256;2022-12-08T09:22:01;1.80;;;1.00;;
48516;SDS011;34310;51.904;4.256;2022-12-08T09:24:29;1.15;;;0.80;;
48516;SDS011;34310;51.904;4.256;2022-12-08T09:26:57;2.67;;;1.00;;
48516;SDS011;34310;51.904;4.256;2022-12-08T09:29:24;1.95;;;0.80;;
48516;SDS011;34310;51.904;4.256;2022-12-08T09:34:26;1.20;;;0.80;;
48516;SDS011;34310;51.904;4.256;2022-12-08T09:36:53;1.20;;;0.80;;
48516;SDS011;34310;51.904;4.256;2022-12-08T09:39:21;1.65;;;0.88;;
48516;SDS011;34310;51.904;4.256;2022-12-08T09:41:48;3.00;;;0.90;;
48516;SDS011;34310;51.904;4.256;2022-12-08T09:46:58;0.77;;;0.70;;
48516;SDS011;34310;51.904;4.256;2022-12-08T09:49:34;1.23;;;0.70;;
48516;SDS011;34310;51.904;4.256;2022-12-08T09:52:20;1.30;;;0.82;;
48516;SDS011;34310;51.904;4.256;2022-12-08T09:54:59;1.15;;;0.90;;
48516;SDS011;34310;51.904;4.256;2022-12-08T09:57:29;1.00;;;0.70;;
48516;SDS011;34310;51.904;4.256;2022-12-08T09:59:58;1.38;;;0.80;;
48516;SDS011;34310;51.904;4.256;2022-12-08T10:02:30;1.60;;;0.70;;
48516;SDS011;34310;51.904;4.256;2022-12-08T10:04:58;0.95;;;0.60;;
48516;SDS011;34310;51.904;4.256;2022-12-08T10:07:36;0.63;;;0.63;;
48516;SDS011;34310;51.904;4.256;2022-12-08T10:13:07;1.52;;;0.90;;
48516;SDS011;34310;51.904;4.256;2022-12-08T10:19:00;1.10;;;0.90;;
48516;SDS011;34310;51.904;4.256;2022-12-08T10:21:39;0.70;;;0.70;;
48516;SDS011;34310;51.904;4.256;2022-12-08T10:24:30;0.90;;;0.90;;
48516;SDS011;34310;51.904;4.256;2022-12-08T10:27:00;2.17;;;1.20;;
48516;SDS011;34310;51.904;4.256;2022-12-08T10:29:28;2.42;;;0.90;;
48516;SDS011;34310;51.904;4.256;2022-12-08T10:31:56;1.83;;;0.88;;
48516;SDS011;34310;51.904;4.256;2022-12-08T10:34:25;1.55;;;0.90;;
48516;SDS011;34310;51.904;4.256;2022-12-08T10:36:53;1.30;;;0.90;;
48516;SDS011;34310;51.904;4.256;2022-12-08T10:42:16;2.13;;;1.17;;
48516;SDS011;34310;51.904;4.256;2022-12-08T10:44:57;1.20;;;0.80;;
48516;SDS011;34310;51.904;4.256;2022-12-08T10:47:41;2.13;;;0.98;;
48516;SDS011;34310;51.904;4.256;2022-12-08T10:50:23;1.52;;;0.80;;
48516;SDS011;34310;51.904;4.256;2022-12-08T10:53:09;2.28;;;0.93;;
48516;SDS011;34310;51.904;4.256;2022-12-08T10:55:41;1.40;;;0.90;;
48516;SDS011;34310;51.904;4.256;2022-12-08T10:58:27;2.28;;;0.90;;
48516;SDS011;34310;51.904;4.256;2022-12-08T11:00:56;2.40;;;0.63;;
48516;SDS011;34310;51.904;4.256;2022-12-08T11:03:28;1.10;;;0.82;;
48516;SDS011;34310;51.904;4.256;2022-12-08T11:05:59;2.67;;;0.70;;
48516;SDS011;34310;51.904;4.256;2022-12-08T11:08:43;2.80;;;0.80;;
48516;SDS011;34310;51.904;4.256;2022-12-08T11:11:19;2.33;;;0.80;;
48516;SDS011;34310;51.904;4.256;2022-12-08T11:13:54;1.80;;;0.70;;
48516;SDS011;34310;51.904;4.256;2022-12-08T11:16:21;2.15;;;1.00;;
48516;SDS011;34310;51.904;4.256;2022-12-08T11:18:55;1.73;;;0.85;;
48516;SDS011;34310;51.904;4.256;2022-12-08T11:21:33;5.03;;;1.27;;
48516;SDS011;34310;51.904;4.256;2022-12-08T11:24:09;1.77;;;0.80;;
48516;SDS011;34310;51.904;4.256;2022-12-08T11:27:07;3.03;;;0.98;;
48516;SDS011;34310;51.904;4.256;2022-12-08T11:29:35;2.70;;;1.10;;
48516;SDS011;34310;51.904;4.256;2022-12-08T11:32:06;2.35;;;1.13;;
48516;SDS011;34310;51.904;4.256;2022-12-08T11:34:43;2.08;;;1.13;;
48516;SDS011;34310;51.904;4.256;2022-12-08T11:37:22;2.50;;;1.00;;
48516;SDS011;34310;51.904;4.256;2022-12-08T11:40:02;4.15;;;1.10;;
48516;SDS011;34310;51.904;4.256;2022-12-08T11:42:34;2.50;;;1.00;;
48516;SDS011;34310;51.904;4.256;2022-12-08T11:45:13;3.42;;;1.58;;
48516;SDS011;34310;51.904;4.256;2022-12-08T11:48:04;3.45;;;1.27;;
48516;SDS011;34310;51.904;4.256;2022-12-08T11:53:15;3.45;;;1.17;;
48516;SDS011;34310;51.904;4.256;2022-12-08T11:55:57;2.88;;;1.25;;
48516;SDS011;34310;51.904;4.256;2022-12-08T11:58:44;2.03;;;1.08;;
48516;SDS011;34310;51.904;4.256;2022-12-08T12:01:19;3.70;;;1.10;;
48516;SDS011;34310;51.904;4.256;2022-12-08T12:09:31;2.90;;;1.05;;
48516;SDS011;34310;51.904;4.256;2022-12-08T12:18:21;2.13;;;0.90;;
48516;SDS011;34310;51.904;4.256;2022-12-08T12:20:57;2.60;;;1.00;;
48516;SDS011;34310;51.904;4.256;2022-12-08T12:23:35;1.90;;;1.00;;
48516;SDS011;34310;51.904;4.256;2022-12-08T12:26:07;2.00;;;1.10;;
48516;SDS011;34310;51.904;4.256;2022-12-08T12:31:26;2.47;;;1.00;;
48516;SDS011;34310;51.904;4.256;2022-12-08T12:34:16;2.45;;;1.10;;
48516;SDS011;34310;51.904;4.256;2022-12-08T12:36:49;2.22;;;0.80;;
48516;SDS011;34310;51.904;4.256;2022-12-08T12:39:31;1.92;;;1.05;;
48516;SDS011;34310;51.904;4.256;2022-12-08T12:42:33;3.85;;;0.80;;
48516;SDS011;34310;51.904;4.256;2022-12-08T12:45:26;1.48;;;0.90;;
48516;SDS011;34310;51.904;4.256;2022-12-08T12:56:01;1.85;;;0.80;;
48516;SDS011;34310;51.904;4.256;2022-12-08T13:03:36;1.42;;;0.55;;
48516;SDS011;34310;51.904;4.256;2022-12-08T13:06:13;1.75;;;0.80;;
48516;SDS011;34310;51.904;4.256;2022-12-08T13:08:52;1.50;;;0.80;;
48516;SDS011;34310;51.904;4.256;2022-12-08T13:11:21;1.45;;;0.70;;
48516;SDS011;34310;51.904;4.256;2022-12-08T13:13:56;3.88;;;0.77;;
48516;SDS011;34310;51.904;4.256;2022-12-08T13:16:36;1.33;;;0.50;;
48516;SDS011;34310;51.904;4.256;2022-12-08T13:19:11;2.03;;;1.17;;
48516;SDS011;34310;51.904;4.256;2022-12-08T13:21:41;1.10;;;0.90;;
48516;SDS011;34310;51.904;4.256;2022-12-08T13:26:45;1.27;;;0.73;;
48516;SDS011;34310;51.904;4.256;2022-12-08T13:34:55;1.88;;;0.77;;
48516;SDS011;34310;51.904;4.256;2022-12-08T13:37:30;1.10;;;0.60;;
48516;SDS011;34310;51.904;4.256;2022-12-08T13:40:21;1.20;;;0.68;;
48516;SDS011;34310;51.904;4.256;2022-12-08T13:45:30;1.02;;;0.60;;
48516;SDS011;34310;51.904;4.256;2022-12-08T13:48:24;1.33;;;0.70;;
48516;SDS011;34310;51.904;4.256;2022-12-08T13:51:22;1.55;;;0.80;;
48516;SDS011;34310;51.904;4.256;2022-12-08T13:54:20;0.98;;;0.82;;
48516;SDS011;34310;51.904;4.256;2022-12-08T13:57:28;1.50;;;0.75;;
48516;SDS011;34310;51.904;4.256;2022-12-08T14:00:03;0.85;;;0.70;;
48516;SDS011;34310;51.904;4.256;2022-12-08T14:02:37;1.63;;;0.77;;
48516;SDS011;34310;51.904;4.256;2022-12-08T14:05:13;0.82;;;0.50;;
48516;SDS011;34310;51.904;4.256;2022-12-08T14:07:45;1.05;;;0.70;;
48516;SDS011;34310;51.904;4.256;2022-12-08T14:10:16;1.13;;;0.57;;
48516;SDS011;34310;51.904;4.256;2022-12-08T14:12:47;1.70;;;0.80;;
48516;SDS011;34310;51.904;4.256;2022-12-08T14:15:23;1.25;;;0.52;;
48516;SDS011;34310;51.904;4.256;2022-12-08T14:17:55;0.77;;;0.50;;
48516;SDS011;34310;51.904;4.256;2022-12-08T14:22:54;1.27;;;0.60;;
48516;SDS011;34310;51.904;4.256;2022-12-08T14:25:27;0.70;;;0.68;;
48516;SDS011;34310;51.904;4.256;2022-12-08T14:27:58;1.35;;;0.75;;
48516;SDS011;34310;51.904;4.256;2022-12-08T14:30:30;1.48;;;0.80;;
48516;SDS011;34310;51.904;4.256;2022-12-08T14:32:59;1.33;;;0.63;;
48516;SDS011;34310;51.904;4.256;2022-12-08T14:35:35;1.27;;;0.60;;
48516;SDS011;34310;51.904;4.256;2022-12-08T14:38:13;1.55;;;0.70;;
48516;SDS011;34310;51.904;4.256;2022-12-08T14:40:44;1.10;;;0.70;;
48516;SDS011;34310;51.904;4.256;2022-12-08T14:43:25;0.65;;;0.60;;
48516;SDS011;34310;51.904;4.256;2022-12-08T14:46:01;1.13;;;0.60;;
48516;SDS011;34310;51.904;4.256;2022-12-08T14:54:00;0.60;;;0.60;;
48516;SDS011;34310;51.904;4.256;2022-12-08T14:56:41;0.90;;;0.60;;
48516;SDS011;34310;51.904;4.256;2022-12-08T14:59:30;0.68;;;0.50;;
48516;SDS011;34310;51.904;4.256;2022-12-08T15:05:20;1.85;;;0.70;;
48516;SDS011;34310;51.904;4.256;2022-12-08T15:07:52;0.77;;;0.55;;
48516;SDS011;34310;51.904;4.256;2022-12-08T15:10:25;0.68;;;0.68;;
48516;SDS011;34310;51.904;4.256;2022-12-08T15:13:06;0.60;;;0.47;;
48516;SDS011;34310;51.904;4.256;2022-12-08T15:18:30;1.08;;;0.60;;
48516;SDS011;34310;51.904;4.256;2022-12-08T15:21:04;1.23;;;0.60;;
48516;SDS011;34310;51.904;4.256;2022-12-08T15:23:41;0.60;;;0.60;;
48516;SDS011;34310;51.904;4.256;2022-12-08T15:26:21;0.52;;;0.50;;
48516;SDS011;34310;51.904;4.256;2022-12-08T15:28:50;0.80;;;0.60;;
48516;SDS011;34310;51.904;4.256;2022-12-08T15:31:18;2.33;;;0.70;;
48516;SDS011;34310;51.904;4.256;2022-12-08T15:33:47;0.50;;;0.50;;
48516;SDS011;34310;51.904;4.256;2022-12-08T15:36:14;1.23;;;0.52;;
48516;SDS011;34310;51.904;4.256;2022-12-08T15:38:41;0.98;;;0.55;;
48516;SDS011;34310;51.904;4.256;2022-12-08T15:41:09;1.00;;;0.70;;
48516;SDS011;34310;51.904;4.256;2022-12-08T15:43:40;1.13;;;0.63;;
48516;SDS011;34310;51.904;4.256;2022-12-08T15:46:07;0.65;;;0.60;;
48516;SDS011;34310;51.904;4.256;2022-12-08T15:48:35;1.00;;;0.50;;
48516;SDS011;34310;51.904;4.256;2022-12-08T15:51:03;1.30;;;0.63;;
48516;SDS011;34310;51.904;4.256;2022-12-08T15:53:30;1.27;;;0.77;;
48516;SDS011;34310;51.904;4.256;2022-12-08T15:55:58;0.90;;;0.60;;
48516;SDS011;34310;51.904;4.256;2022-12-08T15:58:49;1.02;;;0.70;;
48516;SDS011;34310;51.904;4.256;2022-12-08T16:01:20;1.65;;;0.63;;
48516;SDS011;34310;51.904;4.256;2022-12-08T16:03:47;1.02;;;0.60;;
48516;SDS011;34310;51.904;4.256;2022-12-08T16:06:35;0.90;;;0.60;;
48516;SDS011;34310;51.904;4.256;2022-12-08T16:09:35;0.93;;;0.65;;
48516;SDS011;34310;51.904;4.256;2022-12-08T16:12:04;2.00;;;0.70;;
48516;SDS011;34310;51.904;4.256;2022-12-08T16:15:17;1.25;;;0.88;;
48516;SDS011;34310;51.904;4.256;2022-12-08T16:18:05;1.30;;;0.70;;
48516;SDS011;34310;51.904;4.256;2022-12-08T16:20:39;1.02;;;0.70;;
48516;SDS011;34310;51.904;4.256;2022-12-08T16:23:26;1.42;;;0.70;;
48516;SDS011;34310;51.904;4.256;2022-12-08T16:26:09;2.67;;;1.10;;
48516;SDS011;34310;51.904;4.256;2022-12-08T16:29:03;1.52;;;0.90;;
48516;SDS011;34310;51.904;4.256;2022-12-08T16:31:30;2.60;;;1.15;;
48516;SDS011;34310;51.904;4.256;2022-12-08T16:33:58;3.70;;;1.38;;
48516;SDS011;34310;51.904;4.256;2022-12-08T16:36:26;2.22;;;1.40;;
48516;SDS011;34310;51.904;4.256;2022-12-08T16:38:53;2.45;;;1.35;;
48516;SDS011;34310;51.904;4.256;2022-12-08T16:41:20;3.70;;;1.35;;
48516;SDS011;34310;51.904;4.256;2022-12-08T16:44:06;2.05;;;1.40;;
48516;SDS011;34310;51.904;4.256;2022-12-08T16:46:33;2.67;;;1.40;;
48516;SDS011;34310;51.904;4.256;2022-12-08T16:49:03;3.10;;;1.63;;
48516;SDS011;34310;51.904;4.256;2022-12-08T16:51:33;2.22;;;1.33;;
48516;SDS011;34310;51.904;4.256;2022-12-08T16:54:00;2.22;;;1.55;;
48516;SDS011;34310;51.904;4.256;2022-12-08T16:56:27;3.03;;;1.65;;
48516;SDS011;34310;51.904;4.256;2022-12-08T16:58:59;3.53;;;1.80;;